sensor_id;sensor_type;location;lat;lon;timestamp;pressure;altitude;pressure_sealevel;temperature;humidity
84143;BME280;74260;50.772;7.730;2023-12-07T00:00:16;99115.34;;;2.96;100.00
84143;BME280;74260;50.772;7.730;2023-12-07T00:00:47;99121.34;;;2.97;100.00
84143;BME280;74260;50.772;7.730;2023-12-07T00:01:17;99115.34;;;2.96;100.00
84143;BME280;74260;50.772;7.730;2023-12-07T00:01:48;99124.94;;;2.99;100.00
84143;BME280;74260;50.772;7.730;2023-12-07T00:02:18;99123.31;;;2.99;100.00
84143;BME280;74260;50.772;7.730;2023-12-07T00:02:49;99117.69;;;3.02;100.00
84143;BME280;74260;50.772;7.730;2023-12-07T00:03:19;99120.25;;;3.02;100.00
84143;BME280;74260;50.772;7.730;2023-12-07T00:03:49;99120.25;;;3.02;100.00
84143;BME280;74260;50.772;7.730;2023-12-07T00:04:20;99121.13;;;3.02;100.00
84143;BME280;74260;50.772;7.730;2023-12-07T00:04:50;99118.75;;;3.04;100.00
84143;BME280;74260;50.772;7.730;2023-12-07T00:05:20;99123.84;;;3.04;100.00
84143;BME280;74260;50.772;7.730;2023-12-07T00:05:51;99124.22;;;3.07;100.00
84143;BME280;74260;50.772;7.730;2023-12-07T00:06:21;99126.03;;;3.08;100.00
84143;BME280;74260;50.772;7.730;2023-12-07T00:06:51;99118.22;;;3.06;100.00
84143;BME280;74260;50.772;7.730;2023-12-07T00:07:22;99119.50;;;3.10;100.00
84143;BME280;74260;50.772;7.730;2023-12-07T00:07:52;99117.31;;;3.06;100.00
84143;BME280;74260;50.772;7.730;2023-12-07T00:08:22;99118.97;;;3.05;100.00
84143;BME280;74260;50.772;7.730;2023-12-07T00:08:53;99122.41;;;3.06;100.00
84143;BME280;74260;50.772;7.730;2023-12-07T00:09:23;99125.31;;;3.09;100.00
84143;BME280;74260;50.772;7.730;2023-12-07T00:09:54;99124.22;;;3.07;100.00
84143;BME280;74260;50.772;7.730;2023-12-07T00:10:24;99132.97;;;3.09;100.00
84143;BME280;74260;50.772;7.730;2023-12-07T00:10:54;99129.66;;;3.10;100.00
84143;BME280;74260;50.772;7.730;2023-12-07T00:11:25;99131.13;;;3.08;100.00
84143;BME280;74260;50.772;7.730;2023-12-07T00:11:55;99126.59;;;3.05;100.00
84143;BME280;74260;50.772;7.730;2023-12-07T00:12:26;99129.50;;;3.08;100.00
84143;BME280;74260;50.772;7.730;2023-12-07T00:12:56;99136.41;;;3.09;100.00
84143;BME280;74260;50.772;7.730;2023-12-07T00:13:27;99132.03;;;3.08;100.00
84143;BME280;74260;50.772;7.730;2023-12-07T00:13:57;99138.06;;;3.09;100.00
84143;BME280;74260;50.772;7.730;2023-12-07T00:14:27;99142.06;;;3.07;100.00
84143;BME280;74260;50.772;7.730;2023-12-07T00:14:58;99135.28;;;3.07;100.00
84143;BME280;74260;50.772;7.730;2023-12-07T00:15:28;99136.03;;;3.06;100.00
84143;BME280;74260;50.772;7.730;2023-12-07T00:15:59;99134.59;;;3.08;100.00
84143;BME280;74260;50.772;7.730;2023-12-07T00:16:29;99136.97;;;3.07;100.00
84143;BME280;74260;50.772;7.730;2023-12-07T00:17:00;99137.84;;;3.07;100.00
84143;BME280;74260;50.772;7.730;2023-12-07T00:17:30;99135.28;;;3.07;100.00
84143;BME280;74260;50.772;7.730;2023-12-07T00:18:00;99140.78;;;3.10;100.00
84143;BME280;74260;50.772;7.730;2023-12-07T00:18:33;99139.84;;;3.10;100.00
84143;BME280;74260;50.772;7.730;2023-12-07T00:19:03;99140.03;;;3.11;100.00
84143;BME280;74260;50.772;7.730;2023-12-07T00:19:33;99143.50;;;3.12;100.00
84143;BME280;74260;50.772;7.730;2023-12-07T00:20:04;99138.41;;;3.12;100.00
84143;BME280;74260;50.772;7.730;2023-12-07T00:20:35;99139.28;;;3.12;100.00
84143;BME280;74260;50.772;7.730;2023-12-07T00:21:08;99140.94;;;3.12;100.00
84143;BME280;74260;50.772;7.730;2023-12-07T00:21:38;99135.13;;;3.13;100.00
84143;BME280;74260;50.772;7.730;2023-12-07T00:22:09;99131.47;;;3.11;100.00
84143;BME280;74260;50.772;7.730;2023-12-07T00:22:39;99140.22;;;3.13;100.00
84143;BME280;74260;50.772;7.730;2023-12-07T00:23:09;99136.94;;;3.14;100.00
84143;BME280;74260;50.772;7.730;2023-12-07T00:23:40;99131.47;;;3.11;100.00
84143;BME280;74260;50.772;7.730;2023-12-07T00:24:10;99133.50;;;3.13;100.00
84143;BME280;74260;50.772;7.730;2023-12-07T00:24:40;99131.88;;;3.14;100.00
84143;BME280;74260;50.772;7.730;2023-12-07T00:25:11;99143.84;;;3.15;100.00
84143;BME280;74260;50.772;7.730;2023-12-07T00:25:42;99138.00;;;3.16;100.00
84143;BME280;74260;50.772;7.730;2023-12-07T00:26:12;99136.38;;;3.16;100.00
84143;BME280;74260;50.772;7.730;2023-12-07T00:26:42;99140.56;;;3.16;100.00
84143;BME280;74260;50.772;7.730;2023-12-07T00:27:13;99133.13;;;3.17;100.00
84143;BME280;74260;50.772;7.730;2023-12-07T00:27:43;99137.31;;;3.17;100.00
84143;BME280;74260;50.772;7.730;2023-12-07T00:28:13;99130.75;;;3.19;100.00
84143;BME280;74260;50.772;7.730;2023-12-07T00:28:44;99130.75;;;3.19;99.98
84143;BME280;74260;50.772;7.730;2023-12-07T00:29:15;99132.56;;;3.20;99.87
84143;BME280;74260;50.772;7.730;2023-12-07T00:29:45;99125.66;;;3.19;99.97
84143;BME280;74260;50.772;7.730;2023-12-07T00:30:16;99133.47;;;3.20;99.89
84143;BME280;74260;50.772;7.730;2023-12-07T00:30:46;99134.19;;;3.19;99.88
84143;BME280;74260;50.772;7.730;2023-12-07T00:31:17;99134.41;;;3.21;99.92
84143;BME280;74260;50.772;7.730;2023-12-07T00:31:47;99133.31;;;3.19;99.93
84143;BME280;74260;50.772;7.730;2023-12-07T00:32:17;99134.94;;;3.18;99.87
84143;BME280;74260;50.772;7.730;2023-12-07T00:32:48;99133.31;;;3.19;99.95
84143;BME280;74260;50.772;7.730;2023-12-07T00:33:18;99137.31;;;3.17;99.93
84143;BME280;74260;50.772;7.730;2023-12-07T00:33:49;99133.31;;;3.19;100.00
84143;BME280;74260;50.772;7.730;2023-12-07T00:34:19;99136.56;;;3.18;99.85
84143;BME280;74260;50.772;7.730;2023-12-07T00:34:49;99135.47;;;3.16;99.99
84143;BME280;74260;50.772;7.730;2023-12-07T00:35:20;99134.94;;;3.18;100.00
84143;BME280;74260;50.772;7.730;2023-12-07T00:35:52;99133.31;;;3.19;100.00
84143;BME280;74260;50.772;7.730;2023-12-07T00:36:22;99130.38;;;3.16;100.00
84143;BME280;74260;50.772;7.730;2023-12-07T00:36:53;99134.94;;;3.18;99.97
84143;BME280;74260;50.772;7.730;2023-12-07T00:37:23;99139.84;;;3.17;99.92
84143;BME280;74260;50.772;7.730;2023-12-07T00:37:53;99135.09;;;3.20;100.00
84143;BME280;74260;50.772;7.730;2023-12-07T00:38:24;99133.31;;;3.19;99.90
84143;BME280;74260;50.772;7.730;2023-12-07T00:38:54;99132.75;;;3.21;100.00
84143;BME280;74260;50.772;7.730;2023-12-07T00:39:24;99133.66;;;3.22;99.88
84143;BME280;74260;50.772;7.730;2023-12-07T00:39:55;99135.28;;;3.21;99.84
84143;BME280;74260;50.772;7.730;2023-12-07T00:40:26;99134.41;;;3.21;99.74
84143;BME280;74260;50.772;7.730;2023-12-07T00:40:56;99134.41;;;3.21;99.54
84143;BME280;74260;50.772;7.730;2023-12-07T00:41:27;99133.31;;;3.19;99.74
84143;BME280;74260;50.772;7.730;2023-12-07T00:41:57;99139.28;;;3.19;99.51
84143;BME280;74260;50.772;7.730;2023-12-07T00:42:27;99140.03;;;3.18;99.51
84143;BME280;74260;50.772;7.730;2023-12-07T00:42:58;99139.09;;;3.18;99.59
84143;BME280;74260;50.772;7.730;2023-12-07T00:43:28;99130.59;;;3.17;99.58
84143;BME280;74260;50.772;7.730;2023-12-07T00:43:58;99141.47;;;3.16;99.70
84143;BME280;74260;50.772;7.730;2023-12-07T00:44:29;99137.84;;;3.14;99.67
84143;BME280;74260;50.772;7.730;2023-12-07T00:44:59;99136.22;;;3.15;99.91
84143;BME280;74260;50.772;7.730;2023-12-07T00:45:30;99133.50;;;3.13;99.64
84143;BME280;74260;50.772;7.730;2023-12-07T00:46:00;99133.66;;;3.15;99.86
84143;BME280;74260;50.772;7.730;2023-12-07T00:46:32;99140.56;;;3.16;99.77
84143;BME280;74260;50.772;7.730;2023-12-07T00:47:02;99131.13;;;3.15;99.80
84143;BME280;74260;50.772;7.730;2023-12-07T00:47:32;99139.28;;;3.12;99.95
84143;BME280;74260;50.772;7.730;2023-12-07T00:48:03;99136.38;;;3.16;100.00
84143;BME280;74260;50.772;7.730;2023-12-07T00:48:34;99138.00;;;3.16;99.80
84143;BME280;74260;50.772;7.730;2023-12-07T00:49:04;99130.78;;;3.12;99.83
84143;BME280;74260;50.772;7.730;2023-12-07T00:49:38;99147.13;;;3.14;99.93
84143;BME280;74260;50.772;7.730;2023-12-07T00:50:14;99135.13;;;3.13;100.00
84143;BME280;74260;50.772;7.730;2023-12-07T00:50:44;99141.84;;;3.12;99.75
84143;BME280;74260;50.772;7.730;2023-12-07T00:51:15;99140.03;;;3.11;100.00
84143;BME280;74260;50.772;7.730;2023-12-07T00:51:45;99136.56;;;3.11;99.91
84143;BME280;74260;50.772;7.730;2023-12-07T00:52:16;99142.03;;;3.14;99.97
84143;BME280;74260;50.772;7.730;2023-12-07T00:52:47;99136.94;;;3.14;100.00
84143;BME280;74260;50.772;7.730;2023-12-07T00:53:17;99139.50;;;3.14;100.00
84143;BME280;74260;50.772;7.730;2023-12-07T00:53:48;99140.38;;;3.14;100.00
84143;BME280;74260;50.772;7.730;2023-12-07T00:54:18;99134.75;;;3.10;99.95
84143;BME280;74260;50.772;7.730;2023-12-07T00:54:49;99140.38;;;3.14;100.00
84143;BME280;74260;50.772;7.730;2023-12-07T00:55:20;99142.41;;;3.17;100.00
84143;BME280;74260;50.772;7.730;2023-12-07T00:55:50;99138.22;;;3.17;100.00
84143;BME280;74260;50.772;7.730;2023-12-07T00:56:20;99141.66;;;3.18;100.00
84143;BME280;74260;50.772;7.730;2023-12-07T00:56:51;99144.19;;;3.18;100.00
84143;BME280;74260;50.772;7.730;2023-12-07T00:57:22;99130.59;;;3.10;100.00
84143;BME280;74260;50.772;7.730;2023-12-07T00:57:52;99140.78;;;3.17;100.00
84143;BME280;74260;50.772;7.730;2023-12-07T00:58:22;99140.94;;;3.19;100.00
84143;BME280;74260;50.772;7.730;2023-12-07T00:58:53;99146.22;;;3.20;100.00
84143;BME280;74260;50.772;7.730;2023-12-07T00:59:23;99142.03;;;3.21;100.00
84143;BME280;74260;50.772;7.730;2023-12-07T00:59:54;99142.03;;;3.21;100.00
84143;BME280;74260;50.772;7.730;2023-12-07T01:00:24;99147.31;;;3.22;100.00
84143;BME280;74260;50.772;7.730;2023-12-07T01:00:54;99141.28;;;3.22;100.00
84143;BME280;74260;50.772;7.730;2023-12-07T01:01:25;99140.75;;;3.24;100.00
84143;BME280;74260;50.772;7.730;2023-12-07T01:01:55;99138.91;;;3.23;100.00
84143;BME280;74260;50.772;7.730;2023-12-07T01:02:26;99144.19;;;3.25;100.00
84143;BME280;74260;50.772;7.730;2023-12-07T01:02:56;99140.03;;;3.25;100.00
84143;BME280;74260;50.772;7.730;2023-12-07T01:03:26;99147.84;;;3.27;100.00
84143;BME280;74260;50.772;7.730;2023-12-07T01:04:00;99140.94;;;3.26;100.00
84143;BME280;74260;50.772;7.730;2023-12-07T01:04:30;99133.28;;;3.26;100.00
84143;BME280;74260;50.772;7.730;2023-12-07T01:05:01;99133.66;;;3.29;100.00
84143;BME280;74260;50.772;7.730;2023-12-07T01:05:31;99138.00;;;3.30;100.00
84143;BME280;74260;50.772;7.730;2023-12-07T01:06:02;99136.03;;;3.27;100.00
84143;BME280;74260;50.772;7.730;2023-12-07T01:06:33;99142.38;;;3.31;100.00
84143;BME280;74260;50.772;7.730;2023-12-07T01:07:03;99140.94;;;3.33;100.00
84143;BME280;74260;50.772;7.730;2023-12-07T01:07:34;99145.81;;;3.31;99.97
84143;BME280;74260;50.772;7.730;2023-12-07T01:08:04;99147.47;;;3.31;100.00
84143;BME280;74260;50.772;7.730;2023-12-07T01:08:34;99138.38;;;3.33;99.89
84143;BME280;74260;50.772;7.730;2023-12-07T01:09:05;99145.63;;;3.30;99.85
84143;BME280;74260;50.772;7.730;2023-12-07T01:09:35;99146.72;;;3.32;99.58
84143;BME280;74260;50.772;7.730;2023-12-07T01:10:06;99148.19;;;3.30;99.48
84143;BME280;74260;50.772;7.730;2023-12-07T01:10:37;99145.28;;;3.27;99.39
84143;BME280;74260;50.772;7.730;2023-12-07T01:11:07;99152.19;;;3.28;99.53
84143;BME280;74260;50.772;7.730;2023-12-07T01:11:38;99149.47;;;3.26;99.51
84143;BME280;74260;50.772;7.730;2023-12-07T01:12:08;99148.75;;;3.27;99.59
84143;BME280;74260;50.772;7.730;2023-12-07T01:12:38;99148.91;;;3.29;99.66
84143;BME280;74260;50.772;7.730;2023-12-07T01:13:09;99150.72;;;3.30;99.65
84143;BME280;74260;50.772;7.730;2023-12-07T01:13:39;99148.91;;;3.29;99.64
84143;BME280;74260;50.772;7.730;2023-12-07T01:14:09;99138.00;;;3.30;99.50
84143;BME280;74260;50.772;7.730;2023-12-07T01:14:41;99149.09;;;3.30;99.60
84143;BME280;74260;50.772;7.730;2023-12-07T01:15:11;99142.00;;;3.28;99.84
84143;BME280;74260;50.772;7.730;2023-12-07T01:15:42;99144.94;;;3.31;99.55
84143;BME280;74260;50.772;7.730;2023-12-07T01:16:13;99144.19;;;3.32;99.54
84143;BME280;74260;50.772;7.730;2023-12-07T01:16:44;99144.75;;;3.29;99.68
84143;BME280;74260;50.772;7.730;2023-12-07T01:17:14;99147.66;;;3.32;99.56
84143;BME280;74260;50.772;7.730;2023-12-07T01:17:45;99144.94;;;3.31;99.60
84143;BME280;74260;50.772;7.730;2023-12-07T01:18:15;99152.56;;;3.31;99.66
84143;BME280;74260;50.772;7.730;2023-12-07T01:18:45;99151.81;;;3.32;99.74
84143;BME280;74260;50.772;7.730;2023-12-07T01:19:16;99149.28;;;3.32;99.72
84143;BME280;74260;50.772;7.730;2023-12-07T01:19:47;99157.66;;;3.31;99.86
84143;BME280;74260;50.772;7.730;2023-12-07T01:20:17;99149.28;;;3.32;99.69
84143;BME280;74260;50.772;7.730;2023-12-07T01:20:47;99156.00;;;3.31;99.60
84143;BME280;74260;50.772;7.730;2023-12-07T01:21:18;99151.66;;;3.30;99.60
84143;BME280;74260;50.772;7.730;2023-12-07T01:21:48;99153.44;;;3.31;99.80
84143;BME280;74260;50.772;7.730;2023-12-07T01:22:19;99157.09;;;3.33;99.79
84143;BME280;74260;50.772;7.730;2023-12-07T01:22:50;99155.81;;;3.30;99.62
84143;BME280;74260;50.772;7.730;2023-12-07T01:23:21;99152.19;;;3.28;99.74
84143;BME280;74260;50.772;7.730;2023-12-07T01:23:52;99158.38;;;3.30;99.56
84143;BME280;74260;50.772;7.730;2023-12-07T01:24:22;99159.09;;;3.29;99.59
84143;BME280;74260;50.772;7.730;2023-12-07T01:24:52;99159.09;;;3.29;99.51
84143;BME280;74260;50.772;7.730;2023-12-07T01:25:23;99158.00;;;3.27;99.50
84143;BME280;74260;50.772;7.730;2023-12-07T01:25:54;99157.66;;;3.24;99.34
84143;BME280;74260;50.772;7.730;2023-12-07T01:26:24;99151.81;;;3.25;99.46
84143;BME280;74260;50.772;7.730;2023-12-07T01:26:55;99156.75;;;3.23;99.51
84143;BME280;74260;50.772;7.730;2023-12-07T01:27:26;99156.56;;;3.22;99.47
84143;BME280;74260;50.772;7.730;2023-12-07T01:27:56;99158.03;;;3.20;99.72
84143;BME280;74260;50.772;7.730;2023-12-07T01:28:27;99157.09;;;3.19;99.81
84143;BME280;74260;50.772;7.730;2023-12-07T01:28:57;99152.00;;;3.19;99.61
84143;BME280;74260;50.772;7.730;2023-12-07T01:29:27;99153.09;;;3.21;99.82
84143;BME280;74260;50.772;7.730;2023-12-07T01:29:58;99148.41;;;3.17;99.77
84143;BME280;74260;50.772;7.730;2023-12-07T01:30:28;99158.75;;;3.19;99.76
84143;BME280;74260;50.772;7.730;2023-12-07T01:30:58;99157.66;;;3.17;99.71
84143;BME280;74260;50.772;7.730;2023-12-07T01:31:29;99148.94;;;3.15;99.75
84143;BME280;74260;50.772;7.730;2023-12-07T01:32:00;99151.66;;;3.16;99.74
84143;BME280;74260;50.772;7.730;2023-12-07T01:32:30;99151.84;;;3.11;99.71
84143;BME280;74260;50.772;7.730;2023-12-07T01:33:01;99160.03;;;3.15;99.90
84143;BME280;74260;50.772;7.730;2023-12-07T01:33:31;99157.31;;;3.14;99.97
84143;BME280;74260;50.772;7.730;2023-12-07T01:34:01;99160.56;;;3.13;99.81
84143;BME280;74260;50.772;7.730;2023-12-07T01:34:32;99151.84;;;3.11;99.87
84143;BME280;74260;50.772;7.730;2023-12-07T01:35:03;99156.56;;;3.08;99.78
84143;BME280;74260;50.772;7.730;2023-12-07T01:35:33;99158.41;;;3.09;99.68
84143;BME280;74260;50.772;7.730;2023-12-07T01:36:04;99161.31;;;3.05;99.77
84143;BME280;74260;50.772;7.730;2023-12-07T01:36:34;99155.13;;;3.03;99.71
84143;BME280;74260;50.772;7.730;2023-12-07T01:37:04;99162.75;;;3.03;99.65
84143;BME280;74260;50.772;7.730;2023-12-07T01:37:35;99164.22;;;3.01;99.81
84143;BME280;74260;50.772;7.730;2023-12-07T01:38:05;99158.78;;;2.98;99.72
84143;BME280;74260;50.772;7.730;2023-12-07T01:38:35;99160.22;;;2.96;99.59
84143;BME280;74260;50.772;7.730;2023-12-07T01:39:06;99159.31;;;2.95;100.00
84143;BME280;74260;50.772;7.730;2023-12-07T01:39:37;99162.41;;;2.93;99.58
84143;BME280;74260;50.772;7.730;2023-12-07T01:40:08;99159.50;;;2.90;99.56
84143;BME280;74260;50.772;7.730;2023-12-07T01:40:40;99161.31;;;2.91;99.51
84143;BME280;74260;50.772;7.730;2023-12-07T01:41:10;99159.13;;;2.87;99.60
84143;BME280;74260;50.772;7.730;2023-12-07T01:41:41;99160.97;;;2.88;99.83
84143;BME280;74260;50.772;7.730;2023-12-07T01:42:11;99166.94;;;2.88;99.83
84143;BME280;74260;50.772;7.730;2023-12-07T01:42:52;99164.22;;;2.87;99.92
84143;BME280;74260;50.772;7.730;2023-12-07T01:43:23;99166.56;;;2.85;100.00
84143;BME280;74260;50.772;7.730;2023-12-07T01:43:53;99164.78;;;2.84;99.94
84143;BME280;74260;50.772;7.730;2023-12-07T01:44:23;99168.19;;;2.85;100.00
84143;BME280;74260;50.772;7.730;2023-12-07T01:44:54;99168.19;;;2.85;100.00
84143;BME280;74260;50.772;7.730;2023-12-07T01:45:24;99162.41;;;2.79;99.75
84143;BME280;74260;50.772;7.730;2023-12-07T01:45:57;99166.22;;;2.82;100.00
84143;BME280;74260;50.772;7.730;2023-12-07T01:46:27;99169.50;;;2.81;99.95
84143;BME280;74260;50.772;7.730;2023-12-07T01:46:58;99165.31;;;2.82;100.00
84143;BME280;74260;50.772;7.730;2023-12-07T01:47:28;99158.22;;;2.79;100.00
84143;BME280;74260;50.772;7.730;2023-12-07T01:47:59;99168.41;;;2.79;99.88
84143;BME280;74260;50.772;7.730;2023-12-07T01:48:30;99161.47;;;2.78;100.00
84143;BME280;74260;50.772;7.730;2023-12-07T01:49:00;99166.56;;;2.78;100.00
84143;BME280;74260;50.772;7.730;2023-12-07T01:49:31;99162.75;;;2.75;100.00
84143;BME280;74260;50.772;7.730;2023-12-07T01:50:02;99162.75;;;2.75;100.00
84143;BME280;74260;50.772;7.730;2023-12-07T01:50:35;99167.84;;;2.75;100.00
84143;BME280;74260;50.772;7.730;2023-12-07T01:51:06;99160.94;;;2.74;99.95
84143;BME280;74260;50.772;7.730;2023-12-07T01:51:37;99165.84;;;2.72;100.00
84143;BME280;74260;50.772;7.730;2023-12-07T01:52:08;99161.47;;;2.71;100.00
84143;BME280;74260;50.772;7.730;2023-12-07T01:52:45;99159.13;;;2.66;99.95
84143;BME280;74260;50.772;7.730;2023-12-07T01:53:16;99164.94;;;2.65;100.00
84143;BME280;74260;50.772;7.730;2023-12-07T01:53:47;99168.22;;;2.64;99.90
84143;BME280;74260;50.772;7.730;2023-12-07T01:54:18;99175.09;;;2.65;100.00
84143;BME280;74260;50.772;7.730;2023-12-07T01:54:49;99168.22;;;2.64;99.97
84143;BME280;74260;50.772;7.730;2023-12-07T01:55:20;99167.13;;;2.62;99.97
84143;BME280;74260;50.772;7.730;2023-12-07T01:55:52;99167.81;;;2.61;99.92
84143;BME280;74260;50.772;7.730;2023-12-07T01:56:24;99178.72;;;2.60;99.76
84143;BME280;74260;50.772;7.730;2023-12-07T01:56:55;99168.91;;;2.56;99.99
84143;BME280;74260;50.772;7.730;2023-12-07T01:57:26;99175.84;;;2.57;99.90
84143;BME280;74260;50.772;7.730;2023-12-07T01:57:57;99170.38;;;2.54;99.94
84143;BME280;74260;50.772;7.730;2023-12-07T01:58:27;99173.63;;;2.53;99.85
84143;BME280;74260;50.772;7.730;2023-12-07T01:58:58;99179.81;;;2.55;99.81
84143;BME280;74260;50.772;7.730;2023-12-07T01:59:28;99188.38;;;2.55;100.00
84143;BME280;74260;50.772;7.730;2023-12-07T01:59:59;99173.81;;;2.54;100.00
84143;BME280;74260;50.772;7.730;2023-12-07T02:00:29;99173.81;;;2.54;100.00
84143;BME280;74260;50.772;7.730;2023-12-07T02:01:00;99179.06;;;2.56;100.00
84143;BME280;74260;50.772;7.730;2023-12-07T02:01:31;99182.38;;;2.55;100.00
84143;BME280;74260;50.772;7.730;2023-12-07T02:02:01;99166.19;;;2.54;100.00
84143;BME280;74260;50.772;7.730;2023-12-07T02:02:32;99173.81;;;2.54;100.00
84143;BME280;74260;50.772;7.730;2023-12-07T02:03:04;99177.47;;;2.56;100.00
84143;BME280;74260;50.772;7.730;2023-12-07T02:03:35;99177.28;;;2.55;100.00
84143;BME280;74260;50.772;7.730;2023-12-07T02:04:06;99177.47;;;2.56;100.00
84143;BME280;74260;50.772;7.730;2023-12-07T02:04:36;99180.91;;;2.57;100.00
84143;BME280;74260;50.772;7.730;2023-12-07T02:05:07;99185.09;;;2.56;100.00
84143;BME280;74260;50.772;7.730;2023-12-07T02:05:42;99181.84;;;2.57;100.00
84143;BME280;74260;50.772;7.730;2023-12-07T02:06:13;99178.38;;;2.57;100.00
84143;BME280;74260;50.772;7.730;2023-12-07T02:06:44;99175.84;;;2.57;100.00
84143;BME280;74260;50.772;7.730;2023-12-07T02:07:15;99172.19;;;2.55;100.00
84143;BME280;74260;50.772;7.730;2023-12-07T02:07:45;99170.16;;;2.52;100.00
84143;BME280;74260;50.772;7.730;2023-12-07T02:08:16;99178.56;;;2.58;100.00
84143;BME280;74260;50.772;7.730;2023-12-07T02:08:46;99178.00;;;2.61;100.00
84143;BME280;74260;50.772;7.730;2023-12-07T02:09:17;99179.47;;;2.59;100.00
84143;BME280;74260;50.772;7.730;2023-12-07T02:09:47;99179.09;;;2.63;100.00
84143;BME280;74260;50.772;7.730;2023-12-07T02:10:18;99179.09;;;2.63;100.00
84143;BME280;74260;50.772;7.730;2023-12-07T02:10:49;99177.28;;;2.62;100.00
84143;BME280;74260;50.772;7.730;2023-12-07T02:11:19;99180.75;;;2.62;100.00
84143;BME280;74260;50.772;7.730;2023-12-07T02:11:50;99182.56;;;2.63;100.00
84143;BME280;74260;50.772;7.730;2023-12-07T02:12:20;99175.66;;;2.62;100.00
84143;BME280;74260;50.772;7.730;2023-12-07T02:12:51;99178.38;;;2.64;100.00
84143;BME280;74260;50.772;7.730;2023-12-07T02:13:23;99183.66;;;2.65;100.00
84143;BME280;74260;50.772;7.730;2023-12-07T02:13:53;99181.09;;;2.65;100.00
84143;BME280;74260;50.772;7.730;2023-12-07T02:14:27;99178.56;;;2.65;100.00
84143;BME280;74260;50.772;7.730;2023-12-07T02:14:58;99187.13;;;2.66;100.00
84143;BME280;74260;50.772;7.730;2023-12-07T02:15:29;99182.03;;;2.66;100.00
84143;BME280;74260;50.772;7.730;2023-12-07T02:16:00;99176.94;;;2.66;100.00
84143;BME280;74260;50.772;7.730;2023-12-07T02:16:43;99182.22;;;2.67;100.00
84143;BME280;74260;50.772;7.730;2023-12-07T02:17:21;99181.66;;;2.70;100.00
84143;BME280;74260;50.772;7.730;2023-12-07T02:18:06;99179.09;;;2.70;100.00
84143;BME280;74260;50.772;7.730;2023-12-07T02:18:45;99170.38;;;2.68;100.00
84143;BME280;74260;50.772;7.730;2023-12-07T02:19:35;99181.13;;;2.72;100.00
84143;BME280;74260;50.772;7.730;2023-12-07T02:20:21;99175.28;;;2.73;100.00
84143;BME280;74260;50.772;7.730;2023-12-07T02:21:47;99184.94;;;2.76;100.00
84143;BME280;74260;50.772;7.730;2023-12-07T02:22:25;99177.31;;;2.76;100.00
84143;BME280;74260;50.772;7.730;2023-12-07T02:23:01;99178.00;;;2.75;100.00
84143;BME280;74260;50.772;7.730;2023-12-07T02:23:34;99173.09;;;2.76;100.00
84143;BME280;74260;50.772;7.730;2023-12-07T02:24:06;99172.22;;;2.76;100.00
84143;BME280;74260;50.772;7.730;2023-12-07T02:24:37;99167.84;;;2.75;100.00
84143;BME280;74260;50.772;7.730;2023-12-07T02:25:09;99172.22;;;2.76;100.00
84143;BME280;74260;50.772;7.730;2023-12-07T02:26:11;99165.69;;;2.71;100.00
84143;BME280;74260;50.772;7.730;2023-12-07T02:26:43;99163.50;;;2.74;100.00
84143;BME280;74260;50.772;7.730;2023-12-07T02:27:14;99172.03;;;2.74;100.00
84143;BME280;74260;50.772;7.730;2023-12-07T02:27:45;99164.03;;;2.71;100.00
84143;BME280;74260;50.772;7.730;2023-12-07T02:28:18;99169.28;;;2.73;100.00
84143;BME280;74260;50.772;7.730;2023-12-07T02:28:49;99165.69;;;2.71;100.00
84143;BME280;74260;50.772;7.730;2023-12-07T02:29:19;99174.00;;;2.70;100.00
84143;BME280;74260;50.772;7.730;2023-12-07T02:29:49;99171.28;;;2.68;100.00
84143;BME280;74260;50.772;7.730;2023-12-07T02:30:20;99160.41;;;2.62;100.00
84143;BME280;74260;50.772;7.730;2023-12-07T02:30:50;99171.84;;;2.66;100.00
84143;BME280;74260;50.772;7.730;2023-12-07T02:31:20;99174.19;;;2.64;100.00
84143;BME280;74260;50.772;7.730;2023-12-07T02:31:51;99172.91;;;2.61;100.00
84143;BME280;74260;50.772;7.730;2023-12-07T02:32:21;99179.66;;;2.60;100.00
84143;BME280;74260;50.772;7.730;2023-12-07T02:32:51;99179.66;;;2.60;100.00
84143;BME280;74260;50.772;7.730;2023-12-07T02:33:22;99170.75;;;2.57;100.00
84143;BME280;74260;50.772;7.730;2023-12-07T02:33:52;99178.56;;;2.58;100.00
84143;BME280;74260;50.772;7.730;2023-12-07T02:34:23;99176.34;;;2.54;100.00
84143;BME280;74260;50.772;7.730;2023-12-07T02:34:53;99180.56;;;2.54;100.00
84143;BME280;74260;50.772;7.730;2023-12-07T02:35:28;99180.91;;;2.57;100.00
84143;BME280;74260;50.772;7.730;2023-12-07T02:35:58;99185.09;;;2.56;100.00
84143;BME280;74260;50.772;7.730;2023-12-07T02:36:29;99182.38;;;2.55;100.00
84143;BME280;74260;50.772;7.730;2023-12-07T02:37:01;99182.38;;;2.55;100.00
84143;BME280;74260;50.772;7.730;2023-12-07T02:37:59;99189.81;;;2.53;100.00
84143;BME280;74260;50.772;7.730;2023-12-07T02:38:31;99186.53;;;2.54;100.00
84143;BME280;74260;50.772;7.730;2023-12-07T02:39:02;99190.72;;;2.54;100.00
84143;BME280;74260;50.772;7.730;2023-12-07T02:39:33;99187.44;;;2.55;100.00
84143;BME280;74260;50.772;7.730;2023-12-07T02:40:06;99183.09;;;2.54;100.00
84143;BME280;74260;50.772;7.730;2023-12-07T02:40:41;99183.28;;;2.55;100.00
84143;BME280;74260;50.772;7.730;2023-12-07T02:41:20;99190.16;;;2.56;100.00
84143;BME280;74260;50.772;7.730;2023-12-07T02:41:51;99186.72;;;2.56;100.00
84143;BME280;74260;50.772;7.730;2023-12-07T02:42:25;99181.44;;;2.54;100.00
84143;BME280;74260;50.772;7.730;2023-12-07T02:42:58;99187.81;;;2.58;100.00
84143;BME280;74260;50.772;7.730;2023-12-07T02:43:29;99184.56;;;2.59;100.00
84143;BME280;74260;50.772;7.730;2023-12-07T02:44:00;99188.72;;;2.58;100.00
84143;BME280;74260;50.772;7.730;2023-12-07T02:44:31;99184.56;;;2.59;100.00
84143;BME280;74260;50.772;7.730;2023-12-07T02:45:03;99182.00;;;2.59;100.00
84143;BME280;74260;50.772;7.730;2023-12-07T02:45:33;99185.63;;;2.61;100.00
84143;BME280;74260;50.772;7.730;2023-12-07T02:46:04;99183.06;;;2.61;100.00
84143;BME280;74260;50.772;7.730;2023-12-07T02:46:34;99193.47;;;2.62;100.00
84143;BME280;74260;50.772;7.730;2023-12-07T02:47:05;99192.91;;;2.65;100.00
84143;BME280;74260;50.772;7.730;2023-12-07T02:47:36;99191.81;;;2.63;100.00